Belvedere, South Carolina
Current Conditions -  °F | °C
As of 5:53 PM on Friday 28 Nov 2014 (Local Time) from KDNL Reporting Station
Clear Clear  
Wind Chill: 46°   Ceiling: Unl
Heat Index: 46°   Visibility: 10mi
Dew Point: 25°   Wind: 3mph
Humidity: 44%   Direction: 350°N
Pressure: 30.31"   Gusts: NA
Location:  33.5092°N, 81.9331°W
Report Text: KDNL 282253Z AUTO 35003KT 10SM CLR 08/M04 A3031 RMK AO2 SLP267 T00781039
Loading
Personal Weather Stations






























Interactive Weather Map New forecast layout! Learn more

10-Day Weather Forecast

Advertisements
Track Severe Weather on mobile